Time;durP1;ratioP1;P1;durP2;ratioP2;P2;SDS_P1;SDS_P2;PMS_P1;PMS_P2;Temp;Humidity;BMP_temperature;BMP_pressure;BME280_temperature;BME280_humidity;BME280_pressure;Samples;Min_cycle;Max_cycle;Signal;HPM_P1;HPM_P2
2023/04/04 00:00:38;;;;;;;6.33;6.03;;;;;;;-1.01;100.00;103253.88;5019328;28;20432;-45
2023/04/04 00:03:06;;;;;;;6.90;6.30;;;;;;;-1.01;100.00;103250.41;5018780;28;20846;-46
2023/04/04 00:05:34;;;;;;;7.17;6.77;;;;;;;-1.03;100.00;103252.25;5019498;28;20432;-46
2023/04/04 00:08:02;;;;;;;7.53;7.03;;;;;;;-1.04;100.00;103240.91;5020211;28;20515;-45
2023/04/04 00:10:30;;;;;;;8.40;7.60;;;;;;;-1.02;100.00;103246.09;5020512;28;20473;-43
2023/04/04 00:13:00;;;;;;;6.47;6.23;;;;;;;-1.04;100.00;103243.53;5017659;28;20473;-43
2023/04/04 00:15:27;;;;;;;6.87;6.47;;;;;;;-1.05;100.00;103243.59;5018844;28;20437;-43
2023/04/04 00:17:55;;;;;;;7.73;6.53;;;;;;;-1.06;100.00;103236.66;5019134;28;20552;-46
2023/04/04 00:20:23;;;;;;;6.03;5.73;;;;;;;-1.06;100.00;103240.13;5019455;28;20433;-44
2023/04/04 00:22:51;;;;;;;7.93;7.13;;;;;;;-1.06;100.00;103247.13;5018763;28;20472;-45
2023/04/04 00:25:19;;;;;;;7.30;6.80;;;;;;;-1.10;100.00;103238.53;5019407;28;20437;-45
2023/04/04 00:27:47;;;;;;;7.63;7.00;;;;;;;-1.14;100.00;103229.09;5019380;28;20819;-44
2023/04/04 00:30:16;;;;;;;7.10;6.70;;;;;;;-1.19;100.00;103231.91;5019129;28;20848;-45
2023/04/04 00:32:44;;;;;;;7.07;6.47;;;;;;;-1.23;100.00;103219.84;5018459;28;21002;-44
2023/04/04 00:35:12;;;;;;;7.37;7.07;;;;;;;-1.27;100.00;103223.50;5019422;28;20845;-43
2023/04/04 00:37:40;;;;;;;8.93;6.37;;;;;;;-1.28;100.00;103220.91;5018540;28;20465;-43
2023/04/04 00:40:09;;;;;;;6.40;5.97;;;;;;;-1.31;100.00;103221.91;5018880;28;20433;-43
2023/04/04 00:42:37;;;;;;;6.93;6.40;;;;;;;-1.33;100.00;103213.28;5018093;28;20468;-44
2023/04/04 00:45:07;;;;;;;7.17;6.60;;;;;;;-1.35;100.00;103209.88;5018909;28;20433;-46
2023/04/04 00:47:38;;;;;;;7.33;6.70;;;;;;;-1.35;100.00;103214.25;5019195;28;20461;-46
2023/04/04 00:50:07;;;;;;;7.13;6.77;;;;;;;-1.37;100.00;103205.56;5019486;28;20997;-42
2023/04/04 00:52:36;;;;;;;6.80;6.10;;;;;;;-1.40;100.00;103210.94;5019253;28;20540;-46
2023/04/04 00:55:04;;;;;;;6.80;6.47;;;;;;;-1.40;100.00;103217.03;5019458;28;20433;-44
2023/04/04 00:57:33;;;;;;;6.57;6.20;;;;;;;-1.42;100.00;103204.91;5019635;28;20479;-44
2023/04/04 01:00:04;;;;;;;10.90;7.00;;;;;;;-1.43;100.00;103208.44;5019397;28;20532;-49
2023/04/04 01:02:32;;;;;;;6.90;6.33;;;;;;;-1.43;100.00;103206.66;5018520;28;20477;-45
2023/04/04 01:05:03;;;;;;;7.10;6.50;;;;;;;-1.45;100.00;103202.41;5020015;28;20445;-43
2023/04/04 01:07:31;;;;;;;6.93;6.43;;;;;;;-1.47;100.00;103204.25;5019407;28;20457;-42
2023/04/04 01:09:59;;;;;;;6.50;6.10;;;;;;;-1.48;100.00;103206.00;5019008;28;20648;-43
2023/04/04 01:12:27;;;;;;;6.30;5.90;;;;;;;-1.48;100.00;103194.69;5018101;28;20483;-43
2023/04/04 01:14:55;;;;;;;6.00;5.80;;;;;;;-1.48;100.00;103202.53;5019358;28;20433;-43
2023/04/04 01:17:24;;;;;;;6.30;6.00;;;;;;;-1.47;100.00;103192.03;5019492;28;20457;-45
2023/04/04 01:20:00;;;;;;;6.97;6.33;;;;;;;-1.43;100.00;103198.81;5019123;28;20495;-47
2023/04/04 01:22:31;;;;;;;6.33;5.87;;;;;;;-1.42;100.00;103197.91;5018442;28;20465;-43
2023/04/04 01:25:01;;;;;;;7.83;7.23;;;;;;;-1.39;100.00;103189.09;5022960;28;20441;-43
2023/04/04 01:27:31;;;;;;;7.03;6.47;;;;;;;-1.37;100.00;103193.34;5022914;28;20495;-43
2023/04/04 01:29:59;;;;;;;6.90;6.40;;;;;;;-1.35;100.00;103190.69;5023444;28;20511;-45
2023/04/04 01:32:33;;;;;;;6.50;6.00;;;;;;;-1.34;100.00;103188.00;5022365;28;20464;-45
2023/04/04 01:35:11;;;;;;;6.53;6.13;;;;;;;-1.29;100.00;103179.97;5022616;28;20432;-43
2023/04/04 01:37:48;;;;;;;7.10;6.60;;;;;;;-1.27;100.00;103173.75;5022963;28;20444;-43
2023/04/04 01:40:18;;;;;;;6.40;5.73;;;;;;;-1.24;100.00;103170.16;5022350;28;20436;-48
2023/04/04 01:42:48;;;;;;;6.53;5.30;;;;;;;-1.22;100.00;103173.56;5021931;28;20517;-44
2023/04/04 01:45:16;;;;;;;6.40;6.00;;;;;;;-1.20;100.00;103174.38;5022317;28;20421;-45
2023/04/04 01:47:44;;;;;;;6.83;6.23;;;;;;;-1.17;100.00;103171.63;5021696;28;20982;-48
2023/04/04 01:50:11;;;;;;;7.00;6.20;;;;;;;-1.12;100.00;103172.28;5022305;28;20815;-43
2023/04/04 01:52:39;;;;;;;6.50;6.00;;;;;;;-1.08;100.00;103173.88;5020526;28;20471;-43
2023/04/04 01:55:08;;;;;;;5.77;5.37;;;;;;;-1.04;100.00;103174.56;5022231;28;20440;-48
2023/04/04 01:57:36;;;;;;;6.00;5.50;;;;;;;-1.00;100.00;103168.31;5021385;28;20461;-48
2023/04/04 02:00:06;;;;;;;6.63;5.77;;;;;;;-0.97;100.00;103171.66;5021766;28;20444;-46
2023/04/04 02:02:34;;;;;;;6.43;5.90;;;;;;;-0.94;100.00;103168.06;5021290;28;20465;-45
2023/04/04 02:05:02;;;;;;;6.90;6.20;;;;;;;-0.93;100.00;103173.25;5022294;28;20531;-48
2023/04/04 02:07:30;;;;;;;7.10;6.50;;;;;;;-0.94;100.00;103174.16;5020978;28;20832;-47
2023/04/04 02:09:58;;;;;;;7.63;6.87;;;;;;;-0.93;100.00;103177.63;5021467;28;20436;-45
2023/04/04 02:12:26;;;;;;;6.30;6.00;;;;;;;-0.92;100.00;103174.06;5020400;28;20524;-45
2023/04/04 02:14:54;;;;;;;10.07;6.20;;;;;;;-0.92;100.00;103171.47;5021608;28;20433;-46
2023/04/04 02:17:24;;;;;;;7.57;6.97;;;;;;;-0.92;100.00;103166.22;5020975;28;20459;-45
2023/04/04 02:19:52;;;;;;;7.63;6.73;;;;;;;-0.92;100.00;103169.69;5022131;28;20459;-43
2023/04/04 02:22:19;;;;;;;6.80;6.40;;;;;;;-0.86;100.00;103168.59;5020030;28;20460;-49
2023/04/04 02:24:47;;;;;;;11.60;6.40;;;;;;;-0.82;100.00;103168.41;5021634;28;20437;-47
2023/04/04 02:27:15;;;;;;;5.83;5.30;;;;;;;-0.81;100.00;103170.13;5021490;28;20818;-45
2023/04/04 02:29:43;;;;;;;5.87;5.50;;;;;;;-0.80;100.00;103158.72;5021200;28;20432;-43
2023/04/04 02:32:11;;;;;;;9.80;6.07;;;;;;;-0.77;100.00;103152.47;5021537;28;20811;-43
2023/04/04 02:34:40;;;;;;;6.33;5.93;;;;;;;-0.72;100.00;103151.34;5020989;28;20814;-43
2023/04/04 02:37:07;;;;;;;7.00;6.00;;;;;;;-0.73;100.00;103149.69;5021216;28;20460;-49
2023/04/04 02:39:35;;;;;;;6.47;5.97;;;;;;;-0.73;100.00;103148.81;5021580;28;20433;-46
2023/04/04 02:42:03;;;;;;;6.13;5.63;;;;;;;-0.75;100.00;103156.75;5021579;28;20527;-45
2023/04/04 02:44:30;;;;;;;6.07;5.57;;;;;;;-0.77;100.00;103149.84;5021988;28;20441;-43
2023/04/04 02:46:58;;;;;;;7.90;7.30;;;;;;;-0.79;100.00;103146.47;5021006;28;20456;-46
2023/04/04 02:49:26;;;;;;;7.27;6.50;;;;;;;-0.83;100.00;103144.88;5021230;28;20543;-48
2023/04/04 02:51:55;;;;;;;10.13;6.67;;;;;;;-0.88;100.00;103137.22;5020987;28;20551;-46
2023/04/04 02:54:23;;;;;;;7.47;6.73;;;;;;;-0.92;100.00;103135.66;5021064;28;20436;-50
2023/04/04 02:56:51;;;;;;;6.70;6.30;;;;;;;-0.94;100.00;103134.00;5021230;28;20491;-48
2023/04/04 02:59:20;;;;;;;6.63;6.23;;;;;;;-0.97;100.00;103144.63;5022286;28;20469;-43
2023/04/04 03:01:47;;;;;;;8.60;7.80;;;;;;;-0.99;100.00;103151.69;5020019;28;20429;-44
2023/04/04 03:04:15;;;;;;;7.90;7.40;;;;;;;-1.00;100.00;103144.75;5021259;28;20445;-43
2023/04/04 03:06:44;;;;;;;7.43;7.03;;;;;;;-1.05;100.00;103138.84;5020588;28;20449;-44
2023/04/04 03:09:13;;;;;;;8.60;7.40;;;;;;;-1.09;100.00;103132.03;5021701;28;20442;-43
2023/04/04 03:11:40;;;;;;;7.80;7.27;;;;;;;-1.12;100.00;103140.88;5020405;28;20967;-44
2023/04/04 03:14:08;;;;;;;8.30;7.60;;;;;;;-1.17;100.00;103141.06;5020129;28;20483;-44
2023/04/04 03:16:36;;;;;;;9.43;7.47;;;;;;;-1.20;100.00;103137.72;5021083;28;20453;-43
2023/04/04 03:19:04;;;;;;;11.50;7.60;;;;;;;-1.24;100.00;103133.50;5020771;28;20441;-43
2023/04/04 03:21:31;;;;;;;8.13;7.33;;;;;;;-1.26;100.00;103135.34;5020666;28;20437;-43
2023/04/04 03:23:59;;;;;;;8.37;7.57;;;;;;;-1.29;100.00;103132.84;5020270;28;20465;-46
2023/04/04 03:26:28;;;;;;;11.87;8.30;;;;;;;-1.34;100.00;103135.66;5019233;28;20457;-44
2023/04/04 03:28:56;;;;;;;7.63;7.13;;;;;;;-1.32;100.00;103130.38;5013619;28;20444;-43
2023/04/04 03:31:24;;;;;;;7.93;7.43;;;;;;;-1.34;100.00;103133.03;5013224;28;20433;-46
2023/04/04 03:33:52;;;;;;;8.80;8.00;;;;;;;-1.35;100.00;103131.34;5012926;28;20465;-48
2023/04/04 03:36:20;;;;;;;9.80;8.00;;;;;;;-1.33;100.00;103131.28;5013035;28;20540;-48
2023/04/04 03:38:47;;;;;;;7.93;7.33;;;;;;;-1.33;100.00;103134.75;5013125;28;20477;-45
2023/04/04 03:41:15;;;;;;;8.60;7.90;;;;;;;-1.30;100.00;103139.00;5012797;28;20437;-44
2023/04/04 03:43:44;;;;;;;8.50;7.77;;;;;;;-1.29;100.00;103140.72;5012665;28;20461;-47
2023/04/04 03:46:12;;;;;;;9.10;8.20;;;;;;;-1.28;100.00;103150.25;5013287;28;20488;-45
2023/04/04 03:48:40;;;;;;;8.87;8.07;;;;;;;-1.24;100.00;103154.47;5013229;28;20441;-44
2023/04/04 03:51:08;;;;;;;7.57;7.20;;;;;;;-1.22;100.00;103155.22;5013251;28;20440;-46
2023/04/04 03:53:36;;;;;;;8.50;7.73;;;;;;;-1.18;100.00;103151.59;5012603;28;20467;-45
2023/04/04 03:56:05;;;;;;;8.57;7.83;;;;;;;-1.16;100.00;103147.13;5013121;28;20433;-46
2023/04/04 03:58:35;;;;;;;8.13;7.63;;;;;;;-1.14;100.00;103140.94;5013190;28;20878;-47
2023/04/04 04:01:05;;;;;;;8.70;8.03;;;;;;;-1.09;100.00;103140.75;5012743;28;20590;-48
2023/04/04 04:03:32;;;;;;;8.50;7.80;;;;;;;-1.06;100.00;103138.00;5012303;28;20465;-45
2023/04/04 04:06:00;;;;;;;10.37;9.47;;;;;;;-1.01;100.00;103133.41;5012859;28;20433;-45
2023/04/04 04:08:28;;;;;;;10.63;8.17;;;;;;;-0.98;100.00;103124.56;5012686;28;20433;-41
2023/04/04 04:10:56;;;;;;;8.50;7.73;;;;;;;-0.97;100.00;103134.13;5013008;28;20795;-42
2023/04/04 04:13:24;;;;;;;9.00;8.20;;;;;;;-0.96;100.00;103123.63;5011979;28;20476;-42
2023/04/04 04:15:54;;;;;;;7.73;7.33;;;;;;;-0.96;100.00;103131.47;5012780;28;20843;-46
2023/04/04 04:18:23;;;;;;;8.77;8.17;;;;;;;-0.95;100.00;103133.16;5012861;28;20425;-46
2023/04/04 04:20:51;;;;;;;8.13;7.53;;;;;;;-0.94;100.00;103126.16;5012510;28;20433;-44
2023/04/04 04:23:18;;;;;;;9.13;8.33;;;;;;;-0.93;100.00;103130.47;5012084;28;20510;-46
2023/04/04 04:25:47;;;;;;;7.60;6.90;;;;;;;-0.93;100.00;103120.88;5012771;28;20429;-47
2023/04/04 04:28:15;;;;;;;8.17;7.57;;;;;;;-0.92;100.00;103122.53;5012735;28;20475;-47
2023/04/04 04:30:43;;;;;;;7.30;6.97;;;;;;;-0.90;100.00;103132.97;5012477;28;20437;-46
2023/04/04 04:33:11;;;;;;;8.40;7.90;;;;;;;-0.90;100.00;103138.22;5012024;28;20476;-45
2023/04/04 04:35:40;;;;;;;8.20;7.60;;;;;;;-0.90;100.00;103139.06;5012766;28;20517;-45
2023/04/04 04:38:08;;;;;;;7.20;6.80;;;;;;;-0.90;100.00;103143.44;5012701;28;20548;-46
2023/04/04 04:40:36;;;;;;;8.17;7.63;;;;;;;-0.91;100.00;103142.59;5012316;28;20433;-52
2023/04/04 04:43:04;;;;;;;8.37;7.57;;;;;;;-0.91;100.00;103139.13;5011895;28;20457;-45
2023/04/04 04:45:32;;;;;;;8.63;7.93;;;;;;;-0.91;100.00;103139.97;5012295;28;20529;-49
2023/04/04 04:47:59;;;;;;;7.70;7.23;;;;;;;-0.87;100.00;103136.31;5012481;28;20457;-47
2023/04/04 04:50:27;;;;;;;7.10;6.70;;;;;;;-0.83;100.00;103144.88;5012155;28;20518;-46
2023/04/04 04:52:56;;;;;;;7.40;6.90;;;;;;;-0.80;100.00;103145.59;5011665;28;20484;-47
2023/04/04 04:55:24;;;;;;;9.30;8.40;;;;;;;-0.74;100.00;103142.72;5012389;28;20433;-45
2023/04/04 04:57:51;;;;;;;7.60;7.10;;;;;;;-0.65;100.00;103149.34;5011615;28;20993;-46
2023/04/04 05:00:21;;;;;;;7.97;7.30;;;;;;;-0.58;100.00;103141.16;5012025;28;20436;-45
2023/04/04 05:02:49;;;;;;;8.03;7.53;;;;;;;-0.49;100.00;103142.53;5011240;28;20464;-46
2023/04/04 05:05:17;;;;;;;7.43;6.70;;;;;;;-0.36;100.00;103140.22;5012291;28;20452;-45
2023/04/04 05:07:45;;;;;;;7.70;7.10;;;;;;;-0.20;100.00;103143.84;5012212;28;20592;-44
2023/04/04 05:10:15;;;;;;;6.97;6.67;;;;;;;0.00;100.00;103139.41;5011907;28;20429;-45
2023/04/04 05:12:43;;;;;;;9.40;8.70;;;;;;;0.70;100.00;103140.47;5011575;28;20489;-48
2023/04/04 05:15:11;;;;;;;19.47;9.27;;;;;;;1.44;100.00;103128.81;5012182;28;20437;-44
2023/04/04 05:17:39;;;;;;;9.90;9.20;;;;;;;2.08;100.00;103126.25;5012184;28;20461;-47
2023/04/04 05:20:08;;;;;;;10.40;9.50;;;;;;;2.73;100.00;103125.19;5012185;28;20429;-47
2023/04/04 05:22:35;;;;;;;10.00;9.30;;;;;;;3.56;100.00;103119.34;5011506;28;20485;-46
2023/04/04 05:25:03;;;;;;;8.97;8.23;;;;;;;4.25;100.00;103122.88;5011993;28;20459;-45
2023/04/04 05:27:32;;;;;;;10.93;10.17;;;;;;;4.72;100.00;103133.00;5011768;28;20970;-48
2023/04/04 05:30:00;;;;;;;8.87;8.23;;;;;;;5.01;100.00;103131.09;5011882;28;20440;-45
2023/04/04 05:32:27;;;;;;;9.30;8.40;;;;;;;5.27;100.00;103121.38;5011203;28;20461;-46
2023/04/04 05:34:55;;;;;;;8.53;7.93;;;;;;;5.53;100.00;103116.00;5012030;28;20487;-48
2023/04/04 05:37:23;;;;;;;8.93;8.20;;;;;;;6.13;100.00;103110.00;5011811;28;20563;-48
2023/04/04 05:39:51;;;;;;;8.10;7.57;;;;;;;7.12;100.00;103104.34;5011540;28;20479;-44
2023/04/04 05:42:19;;;;;;;7.83;7.43;;;;;;;8.04;100.00;103112.13;5011217;28;20464;-48
2023/04/04 05:44:48;;;;;;;8.43;7.60;;;;;;;8.74;100.00;103106.44;5011635;28;20437;-44
2023/04/04 05:47:15;;;;;;;11.23;7.90;;;;;;;9.34;100.00;103106.59;5011482;28;20507;-51
2023/04/04 05:49:43;;;;;;;7.90;7.40;;;;;;;9.91;100.00;103098.03;5011781;28;20499;-45
2023/04/04 05:52:11;;;;;;;7.33;6.73;;;;;;;10.41;100.00;103104.22;5011247;28;20460;-45
2023/04/04 05:54:39;;;;;;;8.27;7.57;;;;;;;10.92;100.00;103098.63;5011357;28;20499;-45
2023/04/04 05:57:07;;;;;;;8.43;7.70;;;;;;;11.34;92.42;103093.78;5011490;28;20504;-47
2023/04/04 05:59:35;;;;;;;7.70;7.10;;;;;;;11.83;83.16;103091.78;5011329;28;20433;-44
2023/04/04 06:02:06;;;;;;;7.97;7.37;;;;;;;12.31;77.11;103096.84;5011213;28;20437;-46
2023/04/04 06:04:34;;;;;;;8.00;7.20;;;;;;;12.65;69.10;103084.50;5011480;28;20978;-49
2023/04/04 06:07:02;;;;;;;8.50;7.70;;;;;;;13.08;66.98;103089.91;5011530;28;20475;-50
2023/04/04 06:09:30;;;;;;;8.27;6.80;;;;;;;13.40;62.65;103088.47;5011664;28;20798;-47
2023/04/04 06:11:57;;;;;;;7.33;6.77;;;;;;;13.67;62.52;103085.59;5014722;28;20802;-44
2023/04/04 06:14:25;;;;;;;8.10;7.40;;;;;;;14.01;61.74;103077.56;5014748;28;20469;-49
2023/04/04 06:16:52;;;;;;;7.63;7.03;;;;;;;13.90;54.17;103080.50;5015140;28;20453;-45
2023/04/04 06:19:21;;;;;;;7.13;6.07;;;;;;;14.23;54.26;103077.78;5015136;28;20436;-49
2023/04/04 06:21:49;;;;;;;6.80;6.40;;;;;;;14.45;55.88;103086.25;5014380;28;20441;-43
2023/04/04 06:24:17;;;;;;;7.70;6.63;;;;;;;14.47;49.48;103077.00;5014982;28;20429;-44
2023/04/04 06:26:45;;;;;;;7.00;6.30;;;;;;;14.43;54.41;103089.06;5014758;28;20531;-45
2023/04/04 06:29:13;;;;;;;5.63;5.20;;;;;;;14.69;53.90;103079.06;5014881;28;20448;-51
2023/04/04 06:31:40;;;;;;;10.03;6.43;;;;;;;14.88;48.13;103075.19;5014356;28;20443;-46
2023/04/04 06:34:08;;;;;;;5.67;5.37;;;;;;;15.23;50.49;103080.19;5013984;28;20564;-47
2023/04/04 06:36:37;;;;;;;7.17;6.50;;;;;;;15.43;50.97;103073.44;5014889;28;20464;-48
2023/04/04 06:39:05;;;;;;;9.57;6.77;;;;;;;15.38;47.92;103072.28;5014572;28;20433;-47
2023/04/04 06:41:33;;;;;;;6.20;5.70;;;;;;;15.19;44.37;103061.91;5014435;28;21015;-49
2023/04/04 06:44:00;;;;;;;5.67;5.17;;;;;;;15.01;44.96;103069.31;5014051;28;20460;-46
2023/04/04 06:46:30;;;;;;;6.10;5.53;;;;;;;14.55;48.08;103082.38;5014444;28;20449;-47
2023/04/04 06:48:58;;;;;;;6.97;5.43;;;;;;;13.94;47.31;103071.16;5014696;28;20452;-47
2023/04/04 06:51:26;;;;;;;6.97;5.40;;;;;;;13.09;49.36;103069.31;5014551;28;20413;-45
2023/04/04 06:53:55;;;;;;;10.20;4.73;;;;;;;12.32;48.14;103069.97;5013838;28;20481;-49
2023/04/04 06:56:23;;;;;;;6.03;5.47;;;;;;;11.57;50.85;103075.53;5014348;28;20457;-46
2023/04/04 06:58:50;;;;;;;11.40;6.70;;;;;;;11.05;51.35;103077.78;5014195;28;20433;-48
2023/04/04 07:01:18;;;;;;;6.20;5.70;;;;;;;10.46;52.52;103074.44;5014307;28;20487;-46
2023/04/04 07:03:46;;;;;;;5.97;5.47;;;;;;;10.13;54.13;103074.78;5013628;28;20467;-43
2023/04/04 07:06:14;;;;;;;11.23;7.03;;;;;;;10.12;55.21;103073.09;5013912;28;20511;-45
2023/04/04 07:08:42;;;;;;;7.97;7.23;;;;;;;9.91;55.11;103073.19;5014164;28;20443;-49
2023/04/04 07:11:11;;;;;;;7.43;6.73;;;;;;;9.61;53.81;103071.41;5014235;28;20425;-48
2023/04/04 07:13:39;;;;;;;7.20;6.60;;;;;;;9.53;53.95;103062.41;5013250;28;20477;-44
2023/04/04 07:16:07;;;;;;;11.70;7.07;;;;;;;9.22;54.95;103070.38;5013659;28;20536;-46
2023/04/04 07:18:35;;;;;;;10.93;6.10;;;;;;;9.01;56.16;103079.31;5013686;28;20480;-45
2023/04/04 07:21:02;;;;;;;8.03;5.70;;;;;;;8.49;57.93;103074.84;5013228;28;21206;-45
2023/04/04 07:23:30;;;;;;;6.90;6.17;;;;;;;8.66;57.47;103079.63;5013173;28;20471;-46
2023/04/04 07:25:58;;;;;;;8.30;5.83;;;;;;;8.91;58.28;103065.94;5013802;28;20838;-47
2023/04/04 07:28:27;;;;;;;6.87;5.20;;;;;;;9.06;58.04;103075.28;5013791;28;20961;-43
2023/04/04 07:30:54;;;;;;;6.60;6.00;;;;;;;9.22;57.69;103062.38;5013411;28;20939;-47
2023/04/04 07:33:22;;;;;;;7.43;6.70;;;;;;;9.36;57.51;103071.81;5012821;28;20891;-47
2023/04/04 07:35:50;;;;;;;8.27;6.03;;;;;;;9.30;56.53;103064.38;5013197;28;20472;-44
2023/04/04 07:38:18;;;;;;;11.17;6.57;;;;;;;9.18;59.09;103066.25;5013593;28;20780;-46
2023/04/04 07:40:48;;;;;;;6.47;5.87;;;;;;;9.13;56.91;103067.63;5013463;28;20440;-47
2023/04/04 07:43:16;;;;;;;7.50;5.80;;;;;;;8.96;57.83;103069.03;5012642;28;20469;-47
2023/04/04 07:45:45;;;;;;;7.23;5.50;;;;;;;8.48;57.34;103068.69;5012911;28;20958;-47
2023/04/04 07:48:17;;;;;;;8.37;5.60;;;;;;;8.36;58.76;103063.53;5013419;28;20414;-45
2023/04/04 07:50:46;;;;;;;8.17;5.63;;;;;;;8.53;58.00;103058.50;5013066;28;20527;-48
2023/04/04 07:53:14;;;;;;;5.80;5.30;;;;;;;8.64;56.89;103073.56;5012576;28;20495;-48
2023/04/04 07:55:41;;;;;;;5.90;4.90;;;;;;;8.58;56.35;103072.25;5013299;28;20473;-47
2023/04/04 07:58:09;;;;;;;6.27;5.00;;;;;;;8.67;56.98;103058.19;5013225;28;20453;-50
2023/04/04 08:00:37;;;;;;;9.03;5.47;;;;;;;8.94;56.34;103060.34;5012955;28;20440;-50
2023/04/04 08:03:06;;;;;;;5.20;4.90;;;;;;;8.74;54.99;103051.41;5012554;28;20461;-47
2023/04/04 08:05:34;;;;;;;7.13;5.70;;;;;;;8.71;56.55;103056.97;5013083;28;20472;-49
2023/04/04 08:08:02;;;;;;;6.17;4.50;;;;;;;9.21;55.36;103051.84;5012819;28;20449;-44
2023/04/04 08:10:30;;;;;;;5.50;5.10;;;;;;;9.47;54.60;103046.94;5013169;28;20445;-47
2023/04/04 08:12:57;;;;;;;5.80;5.30;;;;;;;9.67;52.84;103043.38;5012251;28;20491;-44
2023/04/04 08:15:26;;;;;;;5.33;4.47;;;;;;;9.76;53.54;103045.22;5012978;28;20485;-46
2023/04/04 08:17:54;;;;;;;9.23;4.87;;;;;;;9.29;52.79;103050.19;5012840;28;20453;-44
2023/04/04 08:20:24;;;;;;;5.07;4.67;;;;;;;9.15;52.66;103050.56;5012848;28;20479;-44
2023/04/04 08:22:51;;;;;;;5.33;4.80;;;;;;;8.66;52.09;103040.53;5012278;28;20472;-47
2023/04/04 08:25:19;;;;;;;4.27;3.83;;;;;;;8.43;50.35;103046.09;5012792;28;20483;-44
2023/04/04 08:27:46;;;;;;;5.43;4.33;;;;;;;8.26;50.62;103042.13;5012782;28;20449;-45
2023/04/04 08:30:14;;;;;;;4.80;4.40;;;;;;;8.49;50.11;103040.25;5012663;28;20436;-44
2023/04/04 08:32:43;;;;;;;4.83;3.23;;;;;;;8.60;47.62;103040.25;5010848;28;20495;-46
2023/04/04 08:35:11;;;;;;;3.53;3.27;;;;;;;8.63;47.00;103042.63;5012635;28;20476;-51
2023/04/04 08:37:44;;;;;;;3.73;3.40;;;;;;;8.65;43.61;103041.53;5012278;28;21048;-47
2023/04/04 08:40:11;;;;;;;3.10;2.90;;;;;;;8.55;43.23;103039.75;5012563;28;20414;-48
2023/04/04 08:42:42;;;;;;;3.77;3.43;;;;;;;8.52;45.55;103032.03;5011893;28;20511;-44
2023/04/04 08:45:12;;;;;;;3.73;3.43;;;;;;;8.63;45.23;103026.69;5012645;28;20413;-44
2023/04/04 08:47:41;;;;;;;3.57;3.30;;;;;;;8.58;45.83;103027.06;5012464;28;20484;-45
2023/04/04 08:50:09;;;;;;;4.20;3.87;;;;;;;8.62;46.25;103024.97;5012154;28;21001;-47
2023/04/04 08:52:42;;;;;;;4.63;3.83;;;;;;;8.60;48.36;103025.09;5011782;28;20938;-47
2023/04/04 08:55:10;;;;;;;4.97;4.40;;;;;;;8.52;48.47;103016.06;5012477;28;20503;-45
2023/04/04 08:57:38;;;;;;;3.93;3.63;;;;;;;8.67;46.13;103009.47;5011968;28;20453;-45
2023/04/04 09:00:08;;;;;;;5.27;4.23;;;;;;;9.03;45.14;103010.81;5012360;28;20455;-45
2023/04/04 09:02:43;;;;;;;4.57;4.17;;;;;;;9.57;46.08;103011.38;5011456;28;20982;-49
2023/04/04 09:05:12;;;;;;;3.90;3.80;;;;;;;10.11;41.65;103010.94;5012274;28;20456;-45
2023/04/04 09:07:43;;;;;;;4.33;4.03;;;;;;;10.60;41.77;103009.16;5012143;28;20461;-43
2023/04/04 09:10:11;;;;;;;4.20;3.80;;;;;;;10.76;39.89;103002.25;5012532;28;20788;-49
2023/04/04 09:12:42;;;;;;;4.67;4.33;;;;;;;10.90;37.83;103001.78;5011439;28;20464;-46
2023/04/04 09:15:11;;;;;;;5.27;4.03;;;;;;;10.71;37.15;103009.84;5012128;28;20496;-46
2023/04/04 09:17:39;;;;;;;3.50;3.30;;;;;;;10.79;39.55;103017.13;5011683;28;20457;-50
2023/04/04 09:20:34;;;;;;;4.07;3.87;;;;;;;10.97;38.99;103015.41;5012019;28;20436;-46
2023/04/04 09:23:05;;;;;;;3.90;3.70;;;;;;;11.10;41.09;103015.97;5011540;28;20552;-46
2023/04/04 09:25:33;;;;;;;4.17;3.77;;;;;;;11.31;38.24;103011.25;5012143;28;20413;-45
2023/04/04 09:28:04;;;;;;;4.07;3.10;;;;;;;11.59;38.95;103018.28;5011925;28;20512;-45
2023/04/04 09:30:34;;;;;;;3.63;3.43;;;;;;;11.56;36.83;103017.72;5011761;28;20927;-45
2023/04/04 09:33:04;;;;;;;5.47;4.07;;;;;;;11.53;34.24;103008.19;5011227;28;20457;-51
2023/04/04 09:35:34;;;;;;;3.60;3.30;;;;;;;11.47;37.25;103014.13;5011879;28;20469;-47
2023/04/04 09:38:02;;;;;;;4.33;4.13;;;;;;;11.82;38.41;103017.94;5012082;28;20460;-49
2023/04/04 09:40:32;;;;;;;3.30;3.10;;;;;;;11.55;35.04;103008.91;5012108;28;21114;-48
2023/04/04 09:43:00;;;;;;;4.17;3.57;;;;;;;11.62;38.57;103011.78;5011308;28;20472;-47
2023/04/04 09:45:30;;;;;;;3.60;3.40;;;;;;;11.76;36.20;103013.19;5014961;28;20452;-45
2023/04/04 09:47:59;;;;;;;3.67;3.13;;;;;;;12.17;38.06;103009.94;5015661;28;20886;-44
2023/04/04 09:50:27;;;;;;;4.57;4.27;;;;;;;12.28;38.05;103003.53;5015353;28;20951;-45
2023/04/04 09:52:58;;;;;;;4.03;3.57;;;;;;;12.12;38.06;103004.22;5014760;28;20464;-43
2023/04/04 09:55:35;;;;;;;3.30;3.10;;;;;;;11.89;36.56;103002.94;5015579;28;20464;-44
2023/04/04 09:58:12;;;;;;;3.53;3.23;;;;;;;12.07;37.49;102998.47;5015566;28;20807;-46
2023/04/04 10:00:43;;;;;;;3.37;3.07;;;;;;;12.05;36.63;103003.16;5015503;28;20767;-44
2023/04/04 10:03:13;;;;;;;3.83;3.50;;;;;;;12.09;37.47;103008.06;5014880;28;20469;-44
2023/04/04 10:05:41;;;;;;;4.77;3.30;;;;;;;12.11;35.90;103003.38;5015003;28;20935;-44
2023/04/04 10:08:17;;;;;;;3.03;2.73;;;;;;;11.91;32.95;103001.00;5015356;28;20453;-48
2023/04/04 10:10:50;;;;;;;3.37;3.07;;;;;;;11.80;36.87;103004.69;5015218;28;20428;-45
2023/04/04 10:13:39;;;;;;;3.93;3.53;;;;;;;11.84;35.26;103002.56;5014606;28;20497;-45
2023/04/04 10:16:09;;;;;;;4.03;2.53;;;;;;;12.13;37.30;103003.22;5014977;28;20484;-44
2023/04/04 10:18:37;;;;;;;5.27;2.90;;;;;;;12.13;36.60;102998.72;5014810;28;20432;-47
2023/04/04 10:21:07;;;;;;;3.10;2.93;;;;;;;12.08;33.59;102987.63;5014723;28;20456;-47
2023/04/04 10:23:38;;;;;;;3.57;2.83;;;;;;;12.22;35.18;102991.59;5014468;28;20464;-48
2023/04/04 10:26:07;;;;;;;3.00;2.80;;;;;;;11.99;32.58;102985.03;5014932;28;20455;-44
2023/04/04 10:28:35;;;;;;;3.30;3.00;;;;;;;12.40;35.20;102986.25;5014997;28;21031;-51
2023/04/04 10:31:09;;;;;;;7.47;3.73;;;;;;;12.34;34.38;102985.03;5014887;28;20441;-44
2023/04/04 10:33:44;;;;;;;3.53;3.00;;;;;;;12.32;34.07;102978.16;5013833;28;20457;-46
2023/04/04 10:36:13;;;;;;;3.43;3.13;;;;;;;12.22;34.02;102970.19;5014795;28;20555;-44
2023/04/04 10:38:45;;;;;;;3.40;3.20;;;;;;;12.49;36.80;102970.09;5014849;28;20528;-43
2023/04/04 10:41:14;;;;;;;3.33;3.13;;;;;;;12.42;35.30;102970.91;5014299;28;20416;-43
2023/04/04 10:43:47;;;;;;;5.60;2.80;;;;;;;12.76;36.49;102974.50;5013905;28;20453;-48
2023/04/04 10:46:19;;;;;;;2.97;2.70;;;;;;;12.78;32.01;102969.84;5014896;28;20445;-43
2023/04/04 10:48:48;;;;;;;2.60;2.40;;;;;;;11.45;33.49;102968.00;5014206;28;20428;-45
2023/04/04 10:51:16;;;;;;;2.90;2.53;;;;;;;10.76;34.16;102978.22;5014350;28;21022;-47
2023/04/04 10:53:45;;;;;;;2.97;2.60;;;;;;;10.74;33.63;102971.34;5013723;28;20465;-48
2023/04/04 10:56:15;;;;;;;2.70;2.50;;;;;;;10.93;34.50;102971.31;5013580;28;20974;-45
2023/04/04 10:58:42;;;;;;;3.90;3.40;;;;;;;10.65;31.91;102973.06;5014377;28;20915;-44
2023/04/04 11:01:15;;;;;;;3.10;2.90;;;;;;;10.81;34.62;102970.63;5014210;28;20437;-44
2023/04/04 11:04:16;;;;;;;3.10;2.70;;;;;;;11.35;32.76;102971.72;5013312;28;21014;-45
2023/04/04 11:07:13;;;;;;;2.90;2.70;;;;;;;11.86;33.58;102960.47;5010563;28;20461;-47
2023/04/04 11:09:50;;;;;;;3.40;2.60;;;;;;;11.64;31.59;102962.56;5013909;28;20440;-46
2023/04/04 11:12:23;;;;;;;3.70;2.80;;;;;;;11.61;33.97;102962.88;5014020;28;20464;-49
2023/04/04 11:15:10;;;;;;;2.67;2.47;;;;;;;10.91;31.98;102951.91;5013891;28;20413;-46
2023/04/04 11:18:00;;;;;;;2.77;2.57;;;;;;;11.06;32.67;102962.00;5014030;28;20476;-46
2023/04/04 11:20:37;;;;;;;3.07;2.87;;;;;;;10.80;34.84;102960.97;5012023;28;20433;-47
2023/04/04 11:23:07;;;;;;;3.40;2.80;;;;;;;10.31;34.07;102953.16;5013147;28;20479;-48
2023/04/04 11:25:37;;;;;;;3.33;3.03;;;;;;;10.56;34.18;102963.25;5013883;28;20430;-47
2023/04/04 11:28:14;;;;;;;4.00;2.50;;;;;;;10.63;34.51;102964.38;5013288;28;20461;-45
2023/04/04 11:30:52;;;;;;;2.93;2.73;;;;;;;11.14;35.22;102952.44;5013449;28;20455;-46